Time;durP1;ratioP1;P1;durP2;ratioP2;P2;SDS_P1;SDS_P2;PMS_P1;PMS_P2;Temp;Humidity;BMP_temperature;BMP_pressure;BME280_temperature;BME280_humidity;BME280_pressure;Samples;Min_cycle;Max_cycle;Signal;HPM_P1;HPM_P2
2022/12/19 00:01:22;;;;;;;53.37;38.67;;;;;;;-2.61;100.00;101323.44;5046810;28;20767;-74
2022/12/19 00:03:48;;;;;;;55.07;38.60;;;;;;;-2.62;100.00;101314.97;5053412;28;20159;-73
2022/12/19 00:06:14;;;;;;;51.93;38.60;;;;;;;-2.62;100.00;101311.56;5027171;28;20187;-75
2022/12/19 00:08:42;;;;;;;51.30;35.90;;;;;;;-2.65;100.00;101303.78;5026985;28;20184;-73
2022/12/19 00:11:09;;;;;;;47.33;36.37;;;;;;;-2.64;100.00;101300.44;5026126;28;20187;-75
2022/12/19 00:13:34;;;;;;;43.87;35.00;;;;;;;-2.59;100.00;101295.66;5023033;28;20203;-74
2022/12/19 00:16:05;;;;;;;46.13;35.40;;;;;;;-2.57;100.00;101292.44;5025322;28;20205;-75
2022/12/19 00:18:31;;;;;;;44.17;33.03;;;;;;;-2.53;100.00;101299.44;5024164;28;20208;-74
2022/12/19 00:21:01;;;;;;;46.00;35.67;;;;;;;-2.48;100.00;101290.44;5028079;28;20218;-74
2022/12/19 00:23:29;;;;;;;48.00;35.40;;;;;;;-2.45;100.00;101300.78;5023746;28;20184;-75
2022/12/19 00:25:54;;;;;;;46.03;36.13;;;;;;;-2.42;100.00;101286.53;5026004;28;20199;-74
2022/12/19 00:28:20;;;;;;;46.97;34.77;;;;;;;-2.39;100.00;101272.38;5024704;28;20445;-74
2022/12/19 00:30:45;;;;;;;46.30;33.83;;;;;;;-2.34;100.00;101285.31;5019105;28;20212;-75
2022/12/19 00:33:11;;;;;;;46.33;34.80;;;;;;;-2.33;100.00;101287.06;5015729;28;20221;-75
2022/12/19 00:35:36;;;;;;;42.80;34.37;;;;;;;-2.36;100.00;101297.91;5015418;28;20219;-74
2022/12/19 00:38:02;;;;;;;42.57;33.13;;;;;;;-2.32;100.00;101307.47;5021092;28;20208;-74
2022/12/19 00:40:28;;;;;;;46.40;34.53;;;;;;;-2.31;100.00;101318.47;5022760;28;20281;-75
2022/12/19 00:42:53;;;;;;;44.03;34.30;;;;;;;-2.29;100.00;101319.44;5019494;28;20638;-75
2022/12/19 00:45:18;;;;;;;44.40;33.67;;;;;;;-2.28;100.00;101290.78;5019039;28;20204;-74
2022/12/19 00:47:44;;;;;;;41.83;31.57;;;;;;;-2.26;100.00;101306.06;5018544;28;20188;-75
2022/12/19 00:50:09;;;;;;;41.37;31.87;;;;;;;-2.23;100.00;101309.69;5021224;28;20200;-75
2022/12/19 00:52:34;;;;;;;44.10;33.00;;;;;;;-2.19;100.00;101303.97;5019991;28;20286;-75
2022/12/19 00:55:00;;;;;;;41.53;32.17;;;;;;;-2.15;100.00;101302.53;5019330;28;20222;-75
2022/12/19 00:57:25;;;;;;;39.37;31.67;;;;;;;-2.11;100.00;101301.03;5021595;28;20211;-75
2022/12/19 00:59:50;;;;;;;42.97;33.13;;;;;;;-2.07;100.00;101292.84;5021216;28;20194;-75
2022/12/19 01:02:16;;;;;;;38.40;31.73;;;;;;;-2.08;100.00;101289.41;5019760;28;20220;-75
2022/12/19 01:04:41;;;;;;;40.50;32.57;;;;;;;-2.09;100.00;101286.78;5019665;28;20215;-74
2022/12/19 01:07:07;;;;;;;44.60;33.63;;;;;;;-2.10;100.00;101290.13;5017359;28;20189;-74
2022/12/19 01:09:34;;;;;;;39.63;31.63;;;;;;;-2.09;100.00;101287.66;5021593;28;20771;-74
2022/12/19 01:14:44;;;;;;;48.40;34.70;;;;;;;-2.05;100.00;101281.13;5022429;28;20224;-74
2022/12/19 01:17:10;;;;;;;45.83;33.97;;;;;;;-2.05;100.00;101283.66;5018963;28;20188;-74
2022/12/19 01:19:36;;;;;;;42.73;33.23;;;;;;;-2.04;100.00;101288.81;5024046;28;20228;-75
2022/12/19 01:22:01;;;;;;;41.67;33.33;;;;;;;-2.00;100.00;101284.78;5021272;28;20188;-75
2022/12/19 01:24:26;;;;;;;40.57;32.90;;;;;;;-1.95;100.00;101277.44;5017273;28;20209;-74
2022/12/19 01:26:52;;;;;;;40.40;31.43;;;;;;;-1.89;100.00;101277.78;5012224;28;20835;-74
2022/12/19 01:29:17;;;;;;;38.30;31.40;;;;;;;-1.84;100.00;101273.88;5016193;28;20699;-74
2022/12/19 01:31:42;;;;;;;43.00;32.77;;;;;;;-1.80;100.00;101252.06;5018671;28;20623;-75
2022/12/19 01:34:08;;;;;;;44.67;33.20;;;;;;;-1.77;100.00;101248.03;5014983;28;20219;-74
2022/12/19 01:36:34;;;;;;;41.87;31.37;;;;;;;-1.76;100.00;101247.25;5017769;28;20192;-75
2022/12/19 01:38:59;;;;;;;40.33;32.67;;;;;;;-1.73;100.00;101252.50;5019092;28;20206;-75
2022/12/19 01:41:25;;;;;;;42.57;33.80;;;;;;;-1.75;100.00;101248.16;5026535;28;20191;-73
2022/12/19 01:43:57;;;;;;;45.50;35.20;;;;;;;-1.76;100.00;101246.41;5024287;28;20222;-74
2022/12/19 01:46:44;;;;;;;44.57;34.43;;;;;;;-1.79;100.00;101228.44;5036037;28;20266;-75
2022/12/19 01:49:31;;;;;;;43.93;33.77;;;;;;;-1.81;100.00;101228.34;5023084;28;20187;-75
2022/12/19 01:52:03;;;;;;;44.30;33.90;;;;;;;-1.82;100.00;101224.09;5023005;28;20185;-74
2022/12/19 01:54:35;;;;;;;44.43;32.97;;;;;;;-1.82;100.00;101226.63;5020264;28;20287;-74
2022/12/19 01:57:05;;;;;;;42.90;34.17;;;;;;;-1.78;100.00;101225.13;5026079;28;20675;-75
2022/12/19 01:59:40;;;;;;;41.63;33.13;;;;;;;-1.72;100.00;101222.91;5022095;28;20216;-75
2022/12/19 02:02:13;;;;;;;43.60;33.47;;;;;;;-1.66;100.00;101220.72;5027701;28;20193;-74
2022/12/19 02:04:39;;;;;;;42.17;31.67;;;;;;;-1.62;100.00;101217.59;5026386;28;20291;-74
2022/12/19 02:07:06;;;;;;;40.13;31.70;;;;;;;-1.56;100.00;101227.19;5026981;28;20295;-74
2022/12/19 02:09:33;;;;;;;37.47;30.37;;;;;;;-1.53;100.00;101229.91;5028597;28;20205;-74
2022/12/19 02:11:59;;;;;;;38.60;31.23;;;;;;;-1.50;100.00;101237.69;5037989;28;20169;-75
2022/12/19 02:14:25;;;;;;;38.10;30.60;;;;;;;-1.47;100.00;101247.16;5052211;28;20206;-75
2022/12/19 02:17:03;;;;;;;37.43;29.77;;;;;;;-1.44;100.00;101244.78;5043977;28;20374;-74
2022/12/19 02:19:34;;;;;;;40.60;31.63;;;;;;;-1.41;100.00;101244.94;5028251;28;20217;-74
2022/12/19 02:22:32;;;;;;;36.47;30.37;;;;;;;-1.40;100.00;101229.81;5027755;28;20336;-75
2022/12/19 02:25:13;;;;;;;39.20;30.70;;;;;;;-1.36;100.00;101218.13;5025104;28;20216;-74
2022/12/19 02:28:20;;;;;;;40.17;31.10;;;;;;;-1.35;100.00;101227.50;5050142;28;20193;-74
2022/12/19 02:31:06;;;;;;;38.73;30.37;;;;;;;-1.34;100.00;101231.78;4947982;28;20202;-74
2022/12/19 02:33:43;;;;;;;37.43;30.37;;;;;;;-1.33;100.00;101238.63;4941332;28;20676;-74
2022/12/19 02:36:18;;;;;;;38.33;30.80;;;;;;;-1.31;100.00;101231.97;4988642;28;20197;-75
2022/12/19 02:38:56;;;;;;;40.23;31.83;;;;;;;-1.29;100.00;101232.03;5023321;28;20213;-73
2022/12/19 02:41:43;;;;;;;38.90;31.77;;;;;;;-1.25;100.00;101233.97;5023605;28;20295;-74
2022/12/19 02:44:18;;;;;;;38.53;31.43;;;;;;;-1.23;100.00;101240.88;5023490;28;20663;-74
2022/12/19 02:46:45;;;;;;;40.33;33.87;;;;;;;-1.22;100.00;101241.75;5017632;28;20183;-74
2022/12/19 02:49:12;;;;;;;36.60;30.10;;;;;;;-1.22;100.00;101246.84;5027448;28;20272;-75
2022/12/19 02:51:37;;;;;;;39.33;32.17;;;;;;;-1.21;100.00;101252.78;5022607;28;20184;-73
2022/12/19 02:54:03;;;;;;;38.70;31.77;;;;;;;-1.22;100.00;101249.38;5022260;28;20267;-74
2022/12/19 02:56:34;;;;;;;39.30;31.50;;;;;;;-1.21;100.00;101252.78;5019030;28;20189;-74
2022/12/19 02:59:18;;;;;;;35.50;30.20;;;;;;;-1.22;100.00;101254.47;5022357;28;20212;-73
2022/12/19 03:01:57;;;;;;;38.77;31.13;;;;;;;-1.23;100.00;101252.72;5022621;28;20226;-74
2022/12/19 03:04:52;;;;;;;38.10;30.50;;;;;;;-1.23;100.00;101247.63;5023256;28;20745;-75
2022/12/19 03:07:28;;;;;;;37.87;30.93;;;;;;;-1.24;100.00;101245.88;5019418;28;20553;-74
2022/12/19 03:10:06;;;;;;;37.73;30.87;;;;;;;-1.24;100.00;101253.50;5019429;28;20198;-74
2022/12/19 03:12:38;;;;;;;40.50;32.77;;;;;;;-1.25;100.00;101250.06;5016018;28;20219;-74
2022/12/19 03:15:05;;;;;;;38.43;31.50;;;;;;;-1.25;100.00;101249.22;5024173;28;20205;-75
2022/12/19 03:17:35;;;;;;;38.77;30.13;;;;;;;-1.25;100.00;101247.53;5025179;28;20704;-75
2022/12/19 03:20:07;;;;;;;41.13;31.90;;;;;;;-1.25;100.00;101241.59;5020643;28;20268;-75
2022/12/19 03:22:32;;;;;;;38.80;32.23;;;;;;;-1.24;100.00;101235.72;5018397;28;20197;-74
2022/12/19 03:24:58;;;;;;;40.30;32.10;;;;;;;-1.24;100.00;101241.66;5019281;28;20217;-74
2022/12/19 03:27:28;;;;;;;39.27;31.23;;;;;;;-1.24;100.00;101234.03;5020121;28;20566;-74
2022/12/19 03:30:06;;;;;;;40.97;32.03;;;;;;;-1.24;100.00;101233.19;5017005;28;20279;-75
2022/12/19 03:32:36;;;;;;;37.97;31.00;;;;;;;-1.28;100.00;101224.50;5023798;28;20196;-74
2022/12/19 03:35:01;;;;;;;37.40;29.53;;;;;;;-1.29;100.00;101227.84;5021550;28;20212;-74
2022/12/19 03:37:30;;;;;;;38.47;32.03;;;;;;;-1.32;100.00;101230.22;5023467;28;20201;-75
2022/12/19 03:39:59;;;;;;;41.13;32.90;;;;;;;-1.34;100.00;101223.28;5020964;28;20328;-74
2022/12/19 03:45:20;;;;;;;39.10;31.83;;;;;;;-1.35;100.00;101208.84;5021535;28;21001;-74
2022/12/19 03:47:56;;;;;;;41.47;32.80;;;;;;;-1.32;100.00;101204.81;5016082;28;20193;-75
2022/12/19 03:50:23;;;;;;;42.13;33.43;;;;;;;-1.30;100.00;101209.97;5020568;28;20208;-75
2022/12/19 03:52:58;;;;;;;43.83;33.37;;;;;;;-1.31;100.00;101211.66;5014663;28;20216;-74
2022/12/19 03:55:43;;;;;;;41.83;33.47;;;;;;;-1.29;100.00;101210.06;5016948;28;20316;-74
2022/12/19 03:58:11;;;;;;;40.33;33.03;;;;;;;-1.27;100.00;101215.22;5013806;28;21044;-75
2022/12/19 04:00:40;;;;;;;40.10;33.10;;;;;;;-1.25;100.00;101214.50;5018857;28;20188;-74
2022/12/19 04:03:07;;;;;;;39.83;32.13;;;;;;;-1.21;100.00;101218.06;5019296;28;20209;-75
2022/12/19 04:05:35;;;;;;;38.57;31.37;;;;;;;-1.18;100.00;101220.78;5021179;28;20280;-74
2022/12/19 04:08:04;;;;;;;38.80;32.40;;;;;;;-1.14;100.00;101226.94;5055125;28;20185;-75
2022/12/19 04:10:37;;;;;;;39.70;31.10;;;;;;;-1.12;100.00;101228.75;5014515;28;20271;-74
2022/12/19 04:13:07;;;;;;;37.13;30.13;;;;;;;-1.07;100.00;101231.53;5045222;28;20193;-74
2022/12/19 04:15:38;;;;;;;38.50;32.13;;;;;;;-1.03;100.00;101232.56;5025294;28;20745;-74
2022/12/19 04:18:07;;;;;;;40.87;32.73;;;;;;;-1.03;100.00;101238.53;5024233;28;22098;-75
2022/12/19 04:20:37;;;;;;;40.23;31.40;;;;;;;-1.02;100.00;101242.81;5025487;28;20193;-74
2022/12/19 04:23:15;;;;;;;38.13;31.67;;;;;;;-1.01;100.00;101236.06;5030921;28;20209;-76
2022/12/19 04:25:46;;;;;;;37.23;30.77;;;;;;;-1.05;100.00;101227.41;5054619;28;20193;-74
2022/12/19 04:28:20;;;;;;;38.73;32.30;;;;;;;-1.07;100.00;101234.06;5042394;28;20185;-74
2022/12/19 04:30:47;;;;;;;44.70;35.70;;;;;;;-1.10;100.00;101228.81;5026802;28;20270;-74
2022/12/19 04:33:13;;;;;;;41.47;34.07;;;;;;;-1.15;100.00;101231.13;5021672;28;20622;-74
2022/12/19 04:35:38;;;;;;;41.23;34.50;;;;;;;-1.15;100.00;101223.50;5020621;28;20238;-75
2022/12/19 04:38:04;;;;;;;41.87;33.83;;;;;;;-1.16;100.00;101228.50;5018356;28;20679;-75
2022/12/19 04:40:30;;;;;;;40.90;33.70;;;;;;;-1.18;100.00;101223.31;5017551;28;20200;-75
2022/12/19 04:42:55;;;;;;;39.63;32.83;;;;;;;-1.16;100.00;101233.59;5016628;28;20560;-74
2022/12/19 04:45:20;;;;;;;39.03;33.03;;;;;;;-1.15;100.00;101225.19;5021907;28;20209;-75
2022/12/19 04:47:46;;;;;;;42.03;32.23;;;;;;;-1.15;100.00;101220.97;5019787;28;20329;-74
2022/12/19 04:50:11;;;;;;;39.07;32.13;;;;;;;-1.13;100.00;101218.50;5016165;28;20206;-74
2022/12/19 04:52:36;;;;;;;42.37;32.83;;;;;;;-1.09;100.00;101212.78;5018394;28;20276;-74
2022/12/19 04:55:02;;;;;;;38.27;31.07;;;;;;;-1.08;100.00;101215.44;5017484;28;20278;-74
2022/12/19 04:57:29;;;;;;;43.63;34.17;;;;;;;-1.09;100.00;101211.13;5017667;28;20548;-75
2022/12/19 04:59:54;;;;;;;40.43;33.17;;;;;;;-1.06;100.00;101210.41;5011048;28;20313;-75
2022/12/19 05:02:19;;;;;;;39.10;33.27;;;;;;;-1.05;100.00;101203.66;5012201;28;20206;-75
2022/12/19 05:04:45;;;;;;;40.30;33.40;;;;;;;-1.07;100.00;101203.59;5016399;28;20207;-74
2022/12/19 05:07:11;;;;;;;43.70;33.50;;;;;;;-1.08;100.00;101204.38;5016163;28;20282;-75
2022/12/19 05:09:38;;;;;;;41.60;33.40;;;;;;;-1.10;100.00;101196.69;5018629;28;20278;-75
2022/12/19 05:12:03;;;;;;;41.53;33.80;;;;;;;-1.12;100.00;101188.09;5023384;28;20239;-74
2022/12/19 05:14:29;;;;;;;44.43;34.60;;;;;;;-1.12;100.00;101189.75;5019173;28;21195;-75
2022/12/19 05:16:55;;;;;;;41.33;34.20;;;;;;;-1.13;100.00;101180.38;5019698;28;20983;-75
2022/12/19 05:19:20;;;;;;;39.33;32.70;;;;;;;-1.13;100.00;101183.81;5023022;28;20228;-76
2022/12/19 05:21:45;;;;;;;38.80;31.93;;;;;;;-1.10;100.00;101178.91;5020827;28;21215;-74
2022/12/19 05:24:11;;;;;;;36.37;30.37;;;;;;;-1.08;100.00;101176.44;5019743;28;22168;-76
2022/12/19 05:26:36;;;;;;;40.47;33.20;;;;;;;-1.08;100.00;101159.53;5018590;28;20922;-75
2022/12/19 05:29:02;;;;;;;40.87;32.60;;;;;;;-1.07;100.00;101170.56;5014149;28;21023;-75
2022/12/19 05:31:27;;;;;;;39.27;32.50;;;;;;;-1.08;100.00;101173.91;5016184;28;20278;-75
2022/12/19 05:33:52;;;;;;;42.00;32.60;;;;;;;-1.11;100.00;101171.19;5028496;28;21841;-74
2022/12/19 05:36:18;;;;;;;40.90;32.70;;;;;;;-1.14;100.00;101174.44;5027102;28;20196;-74
2022/12/19 05:38:44;;;;;;;38.37;32.63;;;;;;;-1.14;100.00;101165.97;5027570;28;20215;-75
2022/12/19 05:41:15;;;;;;;42.30;33.27;;;;;;;-1.14;100.00;101166.81;5031780;28;20220;-74
2022/12/19 05:43:41;;;;;;;41.07;32.10;;;;;;;-1.10;100.00;101166.19;5025685;28;20231;-75
2022/12/19 05:46:07;;;;;;;41.30;34.17;;;;;;;-1.06;100.00;101172.31;5026382;28;20202;-74
2022/12/19 05:48:34;;;;;;;40.03;32.87;;;;;;;-1.01;100.00;101173.44;5024859;28;20191;-74
2022/12/19 05:50:59;;;;;;;39.83;32.40;;;;;;;-0.98;100.00;101172.72;5024781;28;20613;-75
2022/12/19 05:53:26;;;;;;;41.83;32.23;;;;;;;-0.96;100.00;101179.59;5024113;28;20204;-74
2022/12/19 05:56:01;;;;;;;39.07;31.33;;;;;;;-0.89;100.00;101172.31;5021749;28;20275;-75
2022/12/19 05:58:27;;;;;;;41.00;33.30;;;;;;;-0.82;100.00;101182.88;5017938;28;20213;-76
2022/12/19 06:00:52;;;;;;;42.53;34.37;;;;;;;-0.78;100.00;101184.81;5004675;28;20253;-74
2022/12/19 06:03:17;;;;;;;41.33;33.80;;;;;;;-0.73;100.00;101186.69;5025700;28;20213;-74
2022/12/19 06:05:43;;;;;;;39.80;33.87;;;;;;;-0.70;100.00;101182.66;5024504;28;20238;-74
2022/12/19 06:08:08;;;;;;;38.53;31.67;;;;;;;-0.65;100.00;101177.78;5026563;28;20311;-74
2022/12/19 06:10:33;;;;;;;43.47;33.27;;;;;;;-0.62;100.00;101173.72;5026346;28;20195;-74
2022/12/19 06:12:58;;;;;;;41.07;32.73;;;;;;;-0.59;100.00;101167.91;5038125;28;20238;-76
2022/12/19 06:15:24;;;;;;;41.20;32.57;;;;;;;-0.57;100.00;101165.47;5045672;28;20248;-74
2022/12/19 06:17:53;;;;;;;39.43;33.33;;;;;;;-0.59;100.00;101161.97;5035531;28;20234;-73
2022/12/19 06:20:18;;;;;;;38.97;32.30;;;;;;;-0.62;100.00;101158.47;5033606;28;20239;-75
2022/12/19 06:22:43;;;;;;;39.50;32.97;;;;;;;-0.63;100.00;101177.06;5037008;28;20192;-75
2022/12/19 06:25:08;;;;;;;45.50;34.07;;;;;;;-0.62;100.00;101191.53;5029479;28;20216;-74
2022/12/19 06:27:34;;;;;;;41.67;35.10;;;;;;;-0.59;100.00;101184.84;5027292;28;20650;-75
2022/12/19 06:29:59;;;;;;;40.47;33.03;;;;;;;-0.57;100.00;101188.34;5035841;28;20220;-73
2022/12/19 06:32:25;;;;;;;42.53;34.97;;;;;;;-0.55;100.00;101194.41;5040595;28;20235;-73
2022/12/19 06:34:50;;;;;;;39.43;33.27;;;;;;;-0.53;100.00;101190.28;5057915;28;20279;-74
2022/12/19 06:37:15;;;;;;;39.03;32.43;;;;;;;-0.49;100.00;101189.59;5063312;28;20226;-73
2022/12/19 06:39:40;;;;;;;37.67;31.07;;;;;;;-0.46;100.00;101179.59;5034147;28;20197;-75
2022/12/19 06:42:23;;;;;;;36.30;30.07;;;;;;;-0.40;100.00;101186.66;5040806;28;20560;-75
2022/12/19 06:44:52;;;;;;;37.00;30.83;;;;;;;-0.39;100.00;101191.84;5032495;28;20328;-75
2022/12/19 06:47:18;;;;;;;36.00;30.83;;;;;;;-0.41;100.00;101180.72;5022954;28;20181;-74
2022/12/19 06:49:47;;;;;;;36.60;31.60;;;;;;;-0.40;100.00;101176.47;5024561;28;20191;-74
2022/12/19 06:52:13;;;;;;;36.43;31.30;;;;;;;-0.39;100.00;101183.31;5022296;28;20234;-73
2022/12/19 06:54:39;;;;;;;37.23;30.90;;;;;;;-0.44;100.00;101178.00;5025720;28;20217;-75
2022/12/19 06:57:04;;;;;;;37.93;31.70;;;;;;;-0.48;100.00;101169.34;5030980;28;20955;-74
2022/12/19 06:59:29;;;;;;;37.13;29.73;;;;;;;-0.50;100.00;101154.81;5029306;28;20275;-75
2022/12/19 07:02:13;;;;;;;37.27;30.63;;;;;;;-0.51;100.00;101143.78;5040413;28;20199;-74
2022/12/19 07:04:42;;;;;;;35.97;30.23;;;;;;;-0.53;100.00;101140.28;5007232;28;20223;-74
2022/12/19 07:07:07;;;;;;;37.40;31.30;;;;;;;-0.54;100.00;101145.28;5035579;28;20199;-74
2022/12/19 07:09:34;;;;;;;35.80;30.83;;;;;;;-0.53;100.00;101150.44;5026419;28;20242;-74
2022/12/19 07:12:00;;;;;;;37.53;30.43;;;;;;;-0.51;100.00;101163.22;5033050;28;20192;-73
2022/12/19 07:14:25;;;;;;;38.37;31.33;;;;;;;-0.53;100.00;101158.06;5032986;28;20217;-74
2022/12/19 07:16:54;;;;;;;39.07;32.57;;;;;;;-0.53;100.00;101147.91;5039100;28;20196;-73
2022/12/19 07:19:21;;;;;;;41.57;33.40;;;;;;;-0.49;100.00;101169.25;5027640;28;20212;-74
2022/12/19 07:21:47;;;;;;;44.63;34.67;;;;;;;-0.44;100.00;101177.13;5037645;28;20284;-74
2022/12/19 07:24:13;;;;;;;45.50;36.80;;;;;;;-0.41;100.00;101190.00;5034017;28;20648;-74
2022/12/19 07:26:41;;;;;;;42.67;35.47;;;;;;;-0.47;100.00;101191.44;5019508;28;20255;-74
2022/12/19 07:29:07;;;;;;;41.00;34.10;;;;;;;-0.47;100.00;101188.91;5027548;28;20174;-74
2022/12/19 07:31:33;;;;;;;38.17;31.87;;;;;;;-0.44;100.00;101190.72;5029432;28;20189;-74
2022/12/19 07:33:58;;;;;;;37.10;31.70;;;;;;;-0.38;100.00;101188.47;5023534;28;20695;-74
2022/12/19 07:36:23;;;;;;;36.80;30.70;;;;;;;-0.32;100.00;101200.66;5030389;28;20217;-75
2022/12/19 07:38:49;;;;;;;35.50;30.00;;;;;;;-0.27;100.00;101200.88;5024196;28;20220;-74
2022/12/19 07:41:15;;;;;;;33.93;29.63;;;;;;;-0.23;100.00;101195.16;5023546;28;20719;-74
2022/12/19 07:43:40;;;;;;;36.77;31.23;;;;;;;-0.21;100.00;101191.88;5019202;28;20192;-74
2022/12/19 07:46:05;;;;;;;41.00;33.30;;;;;;;-0.18;100.00;101191.13;5023417;28;20243;-74
2022/12/19 07:48:31;;;;;;;40.00;34.40;;;;;;;-0.13;100.00;101187.16;5012166;28;20574;-74
2022/12/19 07:50:56;;;;;;;40.47;33.40;;;;;;;-0.08;100.00;101190.81;5029195;28;20195;-74
2022/12/19 07:53:21;;;;;;;38.37;32.20;;;;;;;-0.02;100.00;101188.56;5024091;28;20213;-74
2022/12/19 07:55:50;;;;;;;38.13;32.93;;;;;;;0.05;100.00;101191.41;5007409;28;20274;-73
2022/12/19 07:58:16;;;;;;;37.43;33.33;;;;;;;0.10;100.00;101187.38;5021292;28;20219;-74
2022/12/19 08:00:41;;;;;;;40.13;32.70;;;;;;;0.13;100.00;101192.63;5025028;28;20202;-74
2022/12/19 08:03:07;;;;;;;44.50;36.37;;;;;;;0.17;100.00;101196.19;5024627;28;20183;-74
2022/12/19 08:05:33;;;;;;;47.73;36.80;;;;;;;0.18;100.00;101193.75;5025515;28;20218;-74
2022/12/19 08:07:58;;;;;;;48.47;36.87;;;;;;;0.21;100.00;101182.81;5024019;28;20195;-74
2022/12/19 08:10:24;;;;;;;44.83;35.57;;;;;;;0.24;100.00;101173.66;5026202;28;20187;-74
2022/12/19 08:12:49;;;;;;;61.90;41.67;;;;;;;0.29;100.00;101172.19;5024986;28;20263;-74
2022/12/19 08:15:15;;;;;;;47.17;37.60;;;;;;;0.34;100.00;101179.19;5022515;28;20314;-74
2022/12/19 08:17:40;;;;;;;71.20;44.70;;;;;;;0.37;100.00;101174.25;5023353;28;20194;-75
2022/12/19 08:20:06;;;;;;;60.40;45.27;;;;;;;0.41;100.00;101182.09;5023633;28;20272;-75
2022/12/19 08:22:32;;;;;;;51.00;39.43;;;;;;;0.43;100.00;101177.06;5007077;28;20198;-74
2022/12/19 08:24:57;;;;;;;47.00;37.60;;;;;;;0.44;100.00;101178.81;5025948;28;20718;-74
2022/12/19 08:27:23;;;;;;;42.60;35.00;;;;;;;0.48;100.00;101167.09;5026197;28;20183;-74
2022/12/19 08:29:48;;;;;;;41.60;35.67;;;;;;;0.58;100.00;101171.81;5026116;28;20241;-74
2022/12/19 08:32:15;;;;;;;39.40;33.80;;;;;;;0.67;100.00;101167.13;5025165;28;20188;-73
2022/12/19 08:34:40;;;;;;;37.60;31.80;;;;;;;0.77;100.00;101170.97;5025100;28;20238;-74
2022/12/19 08:37:07;;;;;;;39.13;32.90;;;;;;;0.83;100.00;101178.88;5028162;28;20207;-74
2022/12/19 08:39:32;;;;;;;40.70;33.87;;;;;;;0.85;100.00;101168.78;5023326;28;20219;-74
2022/12/19 08:41:57;;;;;;;41.17;34.20;;;;;;;0.87;100.00;101172.28;5024912;28;20207;-74
2022/12/19 08:44:23;;;;;;;40.50;35.17;;;;;;;0.92;100.00;101168.22;5030806;28;20200;-74
2022/12/19 08:46:48;;;;;;;39.93;35.00;;;;;;;0.96;100.00;101156.53;5040288;28;20199;-75
2022/12/19 08:49:13;;;;;;;39.03;34.30;;;;;;;1.04;100.00;101152.63;5055674;28;20427;-74
2022/12/19 08:51:39;;;;;;;37.97;33.53;;;;;;;1.14;100.00;101148.81;5043087;28;20179;-73
2022/12/19 08:54:05;;;;;;;36.83;32.90;;;;;;;1.22;100.00;101147.44;5029180;28;20991;-74
2022/12/19 08:56:30;;;;;;;40.80;35.07;;;;;;;1.29;100.00;101152.00;5013061;28;20286;-72
2022/12/19 08:58:55;;;;;;;40.20;34.77;;;;;;;1.33;100.00;101145.34;5028619;28;20613;-74
2022/12/19 09:01:22;;;;;;;38.27;33.40;;;;;;;1.36;100.00;101153.16;5011268;28;21073;-74
2022/12/19 09:03:48;;;;;;;36.30;32.47;;;;;;;1.43;100.00;101150.06;5026409;28;20192;-74
2022/12/19 09:06:15;;;;;;;38.63;34.07;;;;;;;1.51;100.00;101152.94;5029889;28;20202;-74
2022/12/19 09:08:41;;;;;;;35.30;31.60;;;;;;;1.59;100.00;101158.34;5031184;28;20191;-74
2022/12/19 09:11:13;;;;;;;35.77;31.23;;;;;;;1.67;100.00;101149.31;5023250;28;20198;-75
2022/12/19 09:13:39;;;;;;;34.20;30.50;;;;;;;1.70;100.00;101144.34;5020085;28;20196;-74
2022/12/19 09:16:09;;;;;;;33.47;29.87;;;;;;;1.76;100.00;101151.38;5022746;28;20258;-75
2022/12/19 09:18:35;;;;;;;35.47;31.13;;;;;;;1.82;100.00;101143.97;5031047;28;20218;-74
2022/12/19 09:21:01;;;;;;;34.37;30.67;;;;;;;1.87;100.00;101139.94;5025527;28;20183;-75
2022/12/19 09:23:27;;;;;;;32.93;29.37;;;;;;;1.95;100.00;101137.69;5024707;28;20196;-74
2022/12/19 09:25:54;;;;;;;32.27;28.87;;;;;;;2.03;100.00;101132.88;5034887;28;20215;-73
2022/12/19 09:28:19;;;;;;;32.43;28.97;;;;;;;2.09;100.00;101128.03;5027692;28;20184;-74
2022/12/19 09:30:45;;;;;;;31.23;28.03;;;;;;;2.17;100.00;101130.88;5028842;28;20191;-75
2022/12/19 09:33:11;;;;;;;33.77;29.33;;;;;;;2.25;100.00;101126.94;5026144;28;20196;-74
2022/12/19 09:35:36;;;;;;;32.50;29.10;;;;;;;2.31;100.00;101129.72;5023549;28;20219;-74
2022/12/19 09:38:02;;;;;;;32.17;28.33;;;;;;;2.36;100.00;101128.19;5006873;28;20191;-73
2022/12/19 09:40:49;;;;;;;32.23;28.80;;;;;;;2.40;100.00;101135.19;5039690;28;20673;-74
2022/12/19 09:43:57;;;;;;;34.10;30.37;;;;;;;2.43;100.00;101119.09;5026948;28;20195;-75
2022/12/19 09:46:48;;;;;;;34.03;30.33;;;;;;;2.49;100.00;101123.59;5033799;28;20194;-74
2022/12/19 09:49:38;;;;;;;32.83;29.30;;;;;;;2.59;100.00;101121.41;5029785;28;20677;-73
2022/12/19 09:52:10;;;;;;;33.53;29.93;;;;;;;2.70;100.00;101119.25;5022913;28;20191;-73
2022/12/19 09:54:50;;;;;;;33.33;29.83;;;;;;;2.81;100.00;101119.66;5007303;28;20291;-73
2022/12/19 09:57:33;;;;;;;32.83;29.40;;;;;;;2.97;100.00;101115.09;5036409;28;20247;-73
2022/12/19 10:00:06;;;;;;;32.57;29.07;;;;;;;3.12;100.00;101119.84;5031630;28;20692;-74
2022/12/19 10:02:56;;;;;;;33.07;29.47;;;;;;;3.25;100.00;101118.59;5030039;28;20215;-74
2022/12/19 10:05:27;;;;;;;32.70;29.40;;;;;;;3.41;100.00;101107.19;5030862;28;20258;-76
2022/12/19 10:07:53;;;;;;;33.77;30.23;;;;;;;3.52;100.00;101103.31;5024388;28;20261;-75
2022/12/19 10:10:46;;;;;;;34.30;30.73;;;;;;;3.53;100.00;101094.81;5028867;28;20708;-75
2022/12/19 10:13:30;;;;;;;33.13;29.73;;;;;;;3.59;100.00;101106.94;5028775;28;20241;-74
2022/12/19 10:16:33;;;;;;;31.17;27.90;;;;;;;3.64;100.00;101101.16;5029531;28;20257;-75
2022/12/19 10:19:08;;;;;;;31.47;28.23;;;;;;;3.69;100.00;101101.28;5026803;28;20211;-75
2022/12/19 10:21:45;;;;;;;31.70;28.43;;;;;;;3.70;100.00;101104.75;5026322;28;20187;-75
2022/12/19 10:24:26;;;;;;;30.10;27.10;;;;;;;3.73;100.00;101100.59;5019063;28;21392;-74
2022/12/19 10:26:55;;;;;;;30.37;27.33;;;;;;;3.78;100.00;101096.47;5026626;28;20675;-74
2022/12/19 10:29:53;;;;;;;29.40;26.47;;;;;;;3.85;100.00;101088.97;5023823;28;20266;-75
2022/12/19 10:32:30;;;;;;;30.07;27.07;;;;;;;3.92;100.00;101083.25;5025256;28;20252;-75
2022/12/19 10:34:56;;;;;;;29.90;26.80;;;;;;;3.97;100.00;101062.06;5030860;28;20215;-75
2022/12/19 10:37:28;;;;;;;29.37;26.27;;;;;;;4.01;100.00;101057.06;5031825;28;20371;-74
2022/12/19 10:40:21;;;;;;;29.07;26.20;;;;;;;4.04;100.00;101062.25;5031617;28;20217;-75
2022/12/19 10:43:06;;;;;;;28.13;25.27;;;;;;;4.05;100.00;101062.31;5040533;28;20195;-76
2022/12/19 10:45:38;;;;;;;28.03;23.57;;;;;;;4.08;100.00;101066.66;5027646;28;20218;-75
2022/12/19 10:48:10;;;;;;;29.17;24.90;;;;;;;4.07;100.00;101073.47;5031208;28;20659;-74
2022/12/19 10:50:36;;;;;;;28.33;24.40;;;;;;;4.10;100.00;101062.44;5026135;28;20196;-75
2022/12/19 10:53:02;;;;;;;28.47;25.37;;;;;;;4.14;100.00;101065.97;5030438;28;20294;-75
2022/12/19 10:55:37;;;;;;;25.47;22.67;;;;;;;4.16;100.00;101070.28;5045857;28;20679;-76
2022/12/19 10:58:32;;;;;;;26.60;23.80;;;;;;;4.22;100.00;101054.25;5045676;28;20195;-74
2022/12/19 11:01:11;;;;;;;28.03;25.13;;;;;;;4.26;100.00;101058.63;5055074;28;20238;-77
2022/12/19 11:03:40;;;;;;;26.57;23.73;;;;;;;4.27;100.00;101045.88;5040595;28;20171;-76
2022/12/19 11:06:26;;;;;;;26.70;23.90;;;;;;;4.30;100.00;101042.53;5043803;28;20207;-76
2022/12/19 11:08:51;;;;;;;28.43;25.40;;;;;;;4.30;100.00;101039.97;5030915;28;20234;-76
2022/12/19 11:11:17;;;;;;;28.93;25.90;;;;;;;4.27;100.00;101039.88;5030026;28;20743;-75
2022/12/19 11:13:45;;;;;;;27.97;24.90;;;;;;;4.26;100.00;101039.00;5027666;28;20188;-75
2022/12/19 11:16:12;;;;;;;27.10;24.23;;;;;;;4.25;100.00;101038.94;5031060;28;20337;-75
2022/12/19 11:18:42;;;;;;;26.57;23.67;;;;;;;4.27;100.00;101034.75;5034550;28;20221;-75
2022/12/19 11:21:24;;;;;;;25.60;22.97;;;;;;;4.25;100.00;101039.84;5029578;28;20223;-76